createdAt,value
2023-05-07T00:03:39.175Z,83.20
2023-05-07T00:08:42.603Z,83.60
2023-05-07T00:13:44.873Z,83.09
2023-05-07T00:18:47.656Z,83.14
2023-05-07T00:23:52.799Z,83.35
2023-05-07T00:28:55.353Z,83.63
2023-05-07T00:33:57.486Z,83.28
2023-05-07T00:39:02.940Z,83.67
2023-05-07T00:44:08.212Z,83.56
2023-05-07T00:49:10.517Z,83.47
2023-05-07T00:54:14.827Z,83.56
2023-05-07T00:59:23.365Z,83.93
2023-05-07T01:04:26.175Z,83.67
2023-05-07T01:09:32.976Z,83.68
2023-05-07T01:14:35.616Z,83.58
2023-05-07T01:19:38.134Z,83.76
2023-05-07T01:24:44.392Z,83.92
2023-05-07T01:29:48.344Z,83.82
2023-05-07T01:34:53.124Z,83.74
2023-05-07T01:40:02.330Z,83.92
2023-05-07T01:45:11.025Z,84.11
2023-05-07T01:50:19.735Z,83.96
2023-05-07T01:55:33.868Z,84.24
2023-05-07T02:00:37.670Z,84.12
2023-05-07T02:05:40.864Z,84.27
2023-05-07T02:10:51.060Z,84.11
2023-05-07T02:15:54.843Z,84.41
2023-05-07T02:21:00.990Z,84.42
2023-05-07T02:26:05.821Z,84.27
2023-05-07T02:31:08.331Z,84.62
2023-05-07T02:36:19.235Z,84.71
2023-05-07T02:41:33.753Z,84.35
2023-05-07T02:46:36.452Z,84.29
2023-05-07T02:51:43.865Z,84.53
2023-05-07T02:56:57.336Z,84.46
2023-05-07T03:02:00.289Z,84.60
2023-05-07T03:07:02.610Z,84.60
2023-05-07T03:12:05.120Z,84.73
2023-05-07T03:17:33.117Z,84.44
2023-05-07T03:22:38.896Z,84.49
2023-05-07T03:27:51.076Z,84.68
2023-05-07T03:33:01.194Z,84.29
2023-05-07T03:38:15.418Z,84.66
2023-05-07T03:43:24.045Z,84.49
2023-05-07T03:48:33.002Z,84.55
2023-05-07T03:53:38.359Z,84.61
2023-05-07T03:58:41.604Z,84.76
2023-05-07T04:03:45.833Z,84.51
2023-05-07T04:08:48.942Z,84.80
2023-05-07T04:13:52.429Z,84.64
2023-05-07T04:18:56.893Z,84.63
2023-05-07T04:24:06.793Z,84.46
2023-05-07T04:29:09.518Z,84.46
2023-05-07T04:34:13.201Z,84.39
2023-05-07T04:39:24.576Z,84.39
2023-05-07T04:44:33.822Z,84.17
2023-05-07T04:49:44.737Z,84.41
2023-05-07T04:54:47.897Z,84.74
2023-05-07T04:59:56.698Z,84.67
2023-05-07T05:05:08.901Z,84.65
2023-05-07T05:10:17.440Z,84.31
2023-05-07T05:15:21.413Z,84.55
2023-05-07T05:20:23.494Z,84.71
2023-05-07T05:25:26.035Z,84.35
2023-05-07T05:30:28.599Z,84.33
2023-05-07T05:35:34.467Z,84.47
2023-05-07T05:40:38.309Z,83.97
2023-05-07T05:45:43.828Z,84.72
2023-05-07T05:50:46.195Z,84.40
2023-05-07T05:55:55.855Z,84.41
2023-05-07T06:01:05.872Z,84.34
2023-05-07T06:06:08.796Z,84.31
2023-05-07T06:11:13.809Z,84.25
2023-05-07T06:16:17.499Z,83.66
2023-05-07T06:21:25.229Z,83.97
2023-05-07T06:26:28.330Z,83.67
2023-05-07T06:31:33.898Z,83.93
2023-05-07T06:36:42.550Z,84.11
2023-05-07T06:41:51.162Z,83.98
2023-05-07T06:47:06.365Z,84.10
2023-05-07T06:52:09.678Z,84.19
2023-05-07T06:57:15.577Z,84.01
2023-05-07T07:02:27.724Z,84.37
2023-05-07T07:07:35.499Z,84.25
2023-05-07T07:12:40.887Z,84.24
2023-05-07T07:17:43.934Z,84.37
2023-05-07T07:22:46.329Z,83.96
2023-05-07T07:28:09.613Z,84.39
2023-05-07T07:33:17.133Z,83.56
2023-05-07T07:38:21.095Z,83.18
2023-05-07T07:43:23.959Z,82.99
2023-05-07T07:48:27.161Z,82.81
2023-05-07T07:53:38.571Z,82.61
2023-05-07T07:58:58.653Z,81.91
2023-05-07T08:04:04.281Z,81.30
2023-05-07T08:09:09.510Z,81.35
2023-05-07T08:14:31.322Z,80.82
2023-05-07T08:19:41.231Z,80.46
2023-05-07T08:24:47.795Z,79.85
2023-05-07T08:29:59.935Z,79.15
2023-05-07T08:35:02.440Z,78.71
2023-05-07T08:40:09.698Z,77.77
2023-05-07T08:45:14.321Z,77.93
2023-05-07T08:50:19.312Z,78.05
2023-05-07T08:55:29.650Z,77.71
2023-05-07T09:00:43.838Z,77.31
2023-05-07T09:05:46.965Z,76.91
2023-05-07T09:10:50.306Z,77.07
2023-05-07T09:15:52.847Z,76.49
2023-05-07T09:20:59.379Z,76.58
2023-05-07T09:26:03.295Z,75.91
2023-05-07T09:31:12.858Z,75.11
2023-05-07T09:36:16.939Z,74.16
2023-05-07T09:41:20.899Z,74.10
2023-05-07T09:46:40.151Z,74.67
2023-05-07T09:51:51.749Z,74.52
2023-05-07T09:56:59.714Z,73.99
2023-05-07T10:02:06.292Z,73.27
2023-05-07T10:07:13.726Z,73.08
2023-05-07T10:12:18.633Z,72.86
2023-05-07T10:17:21.855Z,72.65
2023-05-07T10:22:29.235Z,73.20
2023-05-07T10:27:31.988Z,73.59
2023-05-07T10:32:38.762Z,73.34
2023-05-07T10:37:43.109Z,73.68
2023-05-07T10:43:08.416Z,73.89
2023-05-07T10:48:30.018Z,73.59
2023-05-07T10:53:45.613Z,73.61
2023-05-07T10:58:52.917Z,73.27
2023-05-07T11:04:25.588Z,73.61
2023-05-07T11:09:53.129Z,73.70
2023-05-07T11:14:59.170Z,73.93
2023-05-07T11:20:07.089Z,73.88
2023-05-07T11:25:20.691Z,73.44
2023-05-07T11:30:27.431Z,73.64
2023-05-07T11:35:30.827Z,73.80
2023-05-07T11:40:34.139Z,73.99
2023-05-07T11:45:36.652Z,74.01
2023-05-07T11:51:01.502Z,73.90
2023-05-07T11:56:09.070Z,73.46
2023-05-07T12:01:13.155Z,73.21
2023-05-07T12:06:18.069Z,72.87
2023-05-07T12:11:27.112Z,72.60
2023-05-07T12:16:30.802Z,72.92
2023-05-07T12:21:36.698Z,73.37
2023-05-07T12:26:41.866Z,73.23
2023-05-07T12:31:44.857Z,73.61
2023-05-07T12:36:50.844Z,73.49
2023-05-07T12:42:06.076Z,73.20
2023-05-07T12:47:08.323Z,73.33
2023-05-07T12:52:12.431Z,72.91
2023-05-07T12:57:14.822Z,73.39
2023-05-07T13:02:17.353Z,74.15
2023-05-07T13:07:19.993Z,73.07
2023-05-07T13:12:22.352Z,72.65
2023-05-07T13:17:26.310Z,72.46
2023-05-07T13:22:31.232Z,72.17
2023-05-07T13:27:38.055Z,72.16
2023-05-07T13:32:42.909Z,72.44
2023-05-07T13:37:49.315Z,72.30
2023-05-07T13:42:56.175Z,72.59
2023-05-07T13:47:59.322Z,72.50
2023-05-07T13:53:01.588Z,73.07
2023-05-07T13:58:07.167Z,72.55
2023-05-07T14:03:09.968Z,72.28
2023-05-07T14:08:15.041Z,71.63
2023-05-07T14:13:17.969Z,71.86
2023-05-07T14:18:22.952Z,71.65
2023-05-07T14:23:30.872Z,72.42
2023-05-07T14:28:33.493Z,72.04
2023-05-07T14:33:35.709Z,72.36
2023-05-07T14:38:38.306Z,72.70
2023-05-07T14:43:43.296Z,72.63
2023-05-07T14:48:48.661Z,72.44
2023-05-07T14:53:51.748Z,72.28
2023-05-07T14:58:53.881Z,72.28
2023-05-07T15:03:55.940Z,72.54
2023-05-07T15:08:59.836Z,73.39
2023-05-07T15:14:02.914Z,73.09
2023-05-07T15:19:08.297Z,73.28
2023-05-07T15:24:31.119Z,73.56
2023-05-07T15:29:37.117Z,73.38
2023-05-07T15:34:39.596Z,73.53
2023-05-07T15:39:42.308Z,73.80
2023-05-07T15:44:44.460Z,73.89
2023-05-07T15:49:46.890Z,73.72
2023-05-07T15:54:49.052Z,74.11
2023-05-07T15:59:51.377Z,73.38
2023-05-07T16:04:54.393Z,73.32
2023-05-07T16:09:59.897Z,73.71
2023-05-07T16:15:05.697Z,73.90
2023-05-07T16:20:09.424Z,73.76
2023-05-07T16:25:11.685Z,73.58
2023-05-07T16:30:14.691Z,73.60
2023-05-07T16:35:16.773Z,73.42
2023-05-07T16:40:22.312Z,73.74
2023-05-07T16:45:24.811Z,74.69
2023-05-07T16:50:27.447Z,74.80
2023-05-07T16:55:36.200Z,74.39
2023-05-07T17:00:50.213Z,74.85
2023-05-07T17:05:53.353Z,74.95
2023-05-07T17:10:55.686Z,74.79
2023-05-07T17:15:58.982Z,74.39
2023-05-07T17:21:04.419Z,75.02
2023-05-07T17:26:13.061Z,74.81
2023-05-07T17:31:15.891Z,74.64
2023-05-07T17:36:20.478Z,74.53
2023-05-07T17:41:22.764Z,74.83
2023-05-07T17:46:25.035Z,74.87
2023-05-07T17:51:33.836Z,75.00
2023-05-07T17:56:44.559Z,75.01
2023-05-07T18:01:47.598Z,75.18
2023-05-07T18:06:49.941Z,75.17
2023-05-07T18:11:55.701Z,74.97
2023-05-07T18:17:01.771Z,75.29
2023-05-07T18:22:05.055Z,75.37
2023-05-07T18:27:07.244Z,75.41
2023-05-07T18:32:13.949Z,75.54
2023-05-07T18:37:16.313Z,75.71
2023-05-07T18:42:19.312Z,75.23
2023-05-07T18:47:24.741Z,75.39
2023-05-07T18:52:29.081Z,75.61
2023-05-07T18:57:31.582Z,75.38
2023-05-07T19:02:33.822Z,75.73
2023-05-07T19:07:38.033Z,75.92
2023-05-07T19:12:40.979Z,75.91
2023-05-07T19:17:47.673Z,75.93
2023-05-07T19:22:49.889Z,75.67
2023-05-07T19:27:52.223Z,75.64
2023-05-07T19:33:01.584Z,75.96
2023-05-07T19:38:05.653Z,75.87
2023-05-07T19:43:07.734Z,75.39
2023-05-07T19:48:11.480Z,75.74
2023-05-07T19:53:13.788Z,75.91
2023-05-07T19:58:16.864Z,75.91
2023-05-07T20:03:19.392Z,75.79
2023-05-07T20:08:21.629Z,75.82
2023-05-07T20:18:27.970Z,76.07
2023-05-07T20:23:30.131Z,75.84
2023-05-07T20:28:39.489Z,76.06
2023-05-07T20:33:41.712Z,76.07
2023-05-07T20:38:44.339Z,75.68
2023-05-07T20:43:46.707Z,75.78
2023-05-07T20:48:52.708Z,76.28
2023-05-07T20:53:55.068Z,76.02
2023-05-07T20:58:57.593Z,76.27
2023-05-07T21:04:00.262Z,75.98
2023-05-07T21:09:07.942Z,76.26
2023-05-07T21:14:21.005Z,75.90
2023-05-07T21:19:27.421Z,76.24
2023-05-07T21:24:48.954Z,76.40
2023-05-07T21:30:14.763Z,76.35
2023-05-07T21:35:36.722Z,76.21
2023-05-07T21:41:04.688Z,76.15
2023-05-07T21:46:20.089Z,76.14
2023-05-07T21:51:29.846Z,76.33
2023-05-07T21:56:45.596Z,76.71
2023-05-07T22:01:53.636Z,76.66
2023-05-07T22:07:06.492Z,76.79
2023-05-07T22:12:28.926Z,76.93
2023-05-07T22:17:31.442Z,76.81
2023-05-07T22:22:56.529Z,76.71
2023-05-07T22:27:59.073Z,76.55
2023-05-07T22:33:06.546Z,76.70
2023-05-07T22:38:14.772Z,76.69
2023-05-07T22:44:11.212Z,76.76
2023-05-07T22:49:30.075Z,76.55
2023-05-07T22:54:35.631Z,76.85
2023-05-07T23:00:06.959Z,76.53
2023-05-07T23:05:45.639Z,76.74
2023-05-07T23:11:12.813Z,77.01
2023-05-07T23:16:43.179Z,76.95
2023-05-07T23:22:05.990Z,77.35
2023-05-07T23:27:17.957Z,77.81
2023-05-07T23:32:43.775Z,77.65
2023-05-07T23:37:46.754Z,77.66
2023-05-07T23:43:06.471Z,77.66
2023-05-07T23:48:09.555Z,77.59
2023-05-07T23:53:15.814Z,77.75
2023-05-07T23:58:18.549Z,77.77
